Time;durP1;ratioP1;P1;durP2;ratioP2;P2;SDS_P1;SDS_P2;PMS_P1;PMS_P2;Temp;Humidity;BMP_temperature;BMP_pressure;BME280_temperature;BME280_humidity;BME280_pressure;Samples;Min_cycle;Max_cycle;Signal;HPM_P1;HPM_P2
2022/04/05 00:00:54;;;;;;;22.55;13.38;;;20.20;51.00;;;;;;5077007;28;20045;-72
2022/04/05 00:03:39;;;;;;;18.40;11.82;;;20.30;51.10;;;;;;5077100;28;20051;-71
2022/04/05 00:06:28;;;;;;;19.67;11.65;;;20.30;51.10;;;;;;5076890;28;20037;-71
2022/04/05 00:08:54;;;;;;;18.45;11.52;;;20.20;50.90;;;;;;5076773;28;20048;-71
2022/04/05 00:11:21;;;;;;;18.13;11.60;;;20.20;50.80;;;;;;5076493;28;20037;-71
2022/04/05 00:13:47;;;;;;;14.90;11.48;;;20.20;50.90;;;;;;5075711;28;20124;-71
2022/04/05 00:16:14;;;;;;;18.42;12.48;;;20.20;50.90;;;;;;5076589;28;20112;-71
2022/04/05 00:18:40;;;;;;;16.73;12.35;;;20.20;51.00;;;;;;5076881;28;20082;-71
2022/04/05 00:21:06;;;;;;;19.50;12.20;;;20.10;51.00;;;;;;5075491;28;20108;-71
2022/04/05 00:23:32;;;;;;;20.25;13.02;;;20.20;51.10;;;;;;5076692;28;20037;-71
2022/04/05 00:25:59;;;;;;;22.73;14.40;;;20.10;51.20;;;;;;5076486;28;20037;-71
2022/04/05 00:28:25;;;;;;;27.60;15.00;;;20.10;51.20;;;;;;5076315;28;20047;-71
2022/04/05 00:30:51;;;;;;;23.40;14.52;;;20.10;51.10;;;;;;5075939;28;20064;-71
2022/04/05 00:33:17;;;;;;;28.38;16.38;;;20.10;51.00;;;;;;5075770;28;20048;-71
2022/04/05 00:35:44;;;;;;;20.52;13.13;;;20.10;50.90;;;;;;5076377;28;20044;-72
2022/04/05 00:38:10;;;;;;;24.52;13.07;;;20.20;50.80;;;;;;5076311;28;20037;-71
2022/04/05 00:40:37;;;;;;;20.10;13.05;;;20.10;50.70;;;;;;5076248;28;20051;-71
2022/04/05 00:43:06;;;;;;;18.67;12.00;;;20.10;50.60;;;;;;5076073;28;20053;-71
2022/04/05 00:45:34;;;;;;;18.63;11.50;;;20.10;50.70;;;;;;5076270;28;20043;-71
2022/04/05 00:48:00;;;;;;;23.35;13.60;;;20.10;50.90;;;;;;5076336;28;20108;-71
2022/04/05 00:50:27;;;;;;;19.67;12.98;;;20.00;50.80;;;;;;5076269;28;20045;-71
2022/04/05 00:52:54;;;;;;;21.58;12.75;;;19.90;50.90;;;;;;5076272;28;20146;-71
2022/04/05 00:55:22;;;;;;;19.88;12.43;;;20.00;50.80;;;;;;5076272;28;20041;-72
2022/04/05 00:57:53;;;;;;;20.00;12.70;;;20.00;50.90;;;;;;5076070;28;20040;-71
2022/04/05 01:00:39;;;;;;;25.83;13.07;;;19.90;50.80;;;;;;5076258;28;20048;-71
2022/04/05 01:03:06;;;;;;;18.83;13.02;;;19.90;50.70;;;;;;5075879;28;20041;-72
2022/04/05 01:05:35;;;;;;;27.38;16.17;;;20.00;50.60;;;;;;5075774;28;20029;-71
2022/04/05 01:08:03;;;;;;;21.55;12.55;;;20.00;50.50;;;;;;5074736;28;20029;-72
2022/04/05 01:10:30;;;;;;;25.13;13.35;;;20.00;50.30;;;;;;5076099;28;20049;-71
2022/04/05 01:12:56;;;;;;;27.48;15.05;;;20.00;50.30;;;;;;5076216;28;20041;-71
2022/04/05 01:15:24;;;;;;;22.92;13.68;;;20.00;50.20;;;;;;5074973;28;20049;-71
2022/04/05 01:17:51;;;;;;;22.55;13.05;;;19.90;50.20;;;;;;5066572;28;20036;-71
2022/04/05 01:20:17;;;;;;;20.42;12.88;;;20.00;50.30;;;;;;5056053;28;20046;-71
2022/04/05 01:22:53;;;;;;;19.20;11.85;;;19.90;50.20;;;;;;5055972;28;20053;-71
2022/04/05 01:25:20;;;;;;;20.40;12.13;;;20.00;50.20;;;;;;5055880;28;20037;-71
2022/04/05 01:27:47;;;;;;;21.67;12.07;;;20.00;50.30;;;;;;5056037;28;20045;-71
2022/04/05 01:30:13;;;;;;;26.67;15.00;;;20.00;50.30;;;;;;5055879;28;20041;-72
2022/04/05 01:32:39;;;;;;;23.33;13.43;;;20.00;50.30;;;;;;5056093;28;20065;-71
2022/04/05 01:35:07;;;;;;;17.17;10.43;;;19.90;50.40;;;;;;5055911;28;20034;-72
2022/04/05 01:37:33;;;;;;;18.45;10.75;;;19.90;50.50;;;;;;5055952;28;20041;-72
2022/04/05 01:39:59;;;;;;;18.52;11.82;;;19.90;50.60;;;;;;5055583;28;20407;-72
2022/04/05 01:42:26;;;;;;;20.00;12.23;;;19.90;50.60;;;;;;5055722;28;20049;-71
2022/04/05 01:44:52;;;;;;;22.30;13.35;;;19.90;50.50;;;;;;5055824;28;20063;-71
2022/04/05 01:47:19;;;;;;;17.20;12.00;;;19.80;50.40;;;;;;5054544;28;20030;-71
2022/04/05 01:49:48;;;;;;;17.63;11.52;;;19.90;50.30;;;;;;5055092;28;20041;-71
2022/04/05 01:52:14;;;;;;;16.45;10.13;;;19.80;50.20;;;;;;5055698;28;20076;-71
2022/04/05 01:54:41;;;;;;;18.88;10.52;;;19.80;50.10;;;;;;5074798;28;20037;-72
2022/04/05 01:57:08;;;;;;;17.60;10.00;;;19.80;50.00;;;;;;5059395;28;20046;-71
2022/04/05 01:59:37;;;;;;;17.02;10.57;;;19.90;50.20;;;;;;5059290;28;20076;-71
2022/04/05 02:02:08;;;;;;;17.92;10.45;;;19.80;50.10;;;;;;5059272;28;20049;-71
2022/04/05 02:04:36;;;;;;;15.07;10.20;;;19.80;50.20;;;;;;5059280;28;20048;-72
2022/04/05 02:07:17;;;;;;;15.73;10.05;;;19.70;50.30;;;;;;5059212;28;20037;-72
2022/04/05 02:09:47;;;;;;;15.75;10.20;;;19.70;50.30;;;;;;5075160;28;20120;-71
2022/04/05 02:12:14;;;;;;;16.48;10.73;;;19.70;50.30;;;;;;5058502;28;20052;-71
2022/04/05 02:15:00;;;;;;;17.58;10.88;;;19.70;50.40;;;;;;5060981;28;20293;-71
2022/04/05 02:17:47;;;;;;;21.42;12.80;;;19.60;50.20;;;;;;5058283;28;20049;-71
2022/04/05 02:20:18;;;;;;;16.13;10.00;;;19.70;50.30;;;;;;5074811;28;20116;-71
2022/04/05 02:22:44;;;;;;;17.20;9.20;;;19.70;50.10;;;;;;5058969;28;20037;-71
2022/04/05 02:25:26;;;;;;;14.52;10.35;;;19.70;50.00;;;;;;5058832;28;20067;-71
2022/04/05 02:27:55;;;;;;;16.35;10.23;;;19.70;49.80;;;;;;5057945;28;20037;-72
2022/04/05 02:30:28;;;;;;;12.95;8.48;;;19.70;49.70;;;;;;5058193;28;20055;-72
2022/04/05 02:32:56;;;;;;;14.43;9.07;;;19.80;49.70;;;;;;5058168;28;20106;-72
2022/04/05 02:35:25;;;;;;;11.88;8.90;;;19.70;49.60;;;;;;5057782;28;20076;-71
2022/04/05 02:37:51;;;;;;;15.48;8.30;;;19.90;49.60;;;;;;5041248;28;20069;-71
2022/04/05 02:40:21;;;;;;;10.63;7.63;;;19.90;49.80;;;;;;5058019;28;20046;-71
2022/04/05 02:42:49;;;;;;;9.93;7.95;;;19.80;49.70;;;;;;5058335;28;20068;-72
2022/04/05 02:45:15;;;;;;;9.98;7.88;;;19.80;49.70;;;;;;5058502;28;20037;-71
2022/04/05 02:47:44;;;;;;;11.77;7.95;;;19.80;49.70;;;;;;5041474;28;20033;-72
2022/04/05 02:50:10;;;;;;;11.85;8.27;;;19.80;49.80;;;;;;5057687;28;20132;-71
2022/04/05 02:52:36;;;;;;;14.15;7.82;;;19.70;49.80;;;;;;5058475;28;20065;-71
2022/04/05 02:55:05;;;;;;;11.88;8.15;;;19.70;49.80;;;;;;5058299;28;20056;-71
2022/04/05 02:57:38;;;;;;;13.98;8.30;;;19.60;49.60;;;;;;5057180;28;20034;-71
2022/04/05 03:00:11;;;;;;;;;;;19.70;49.80;;;;;;5058099;28;20041;-71
2022/04/05 03:02:39;;;;;;;13.93;7.50;;;19.60;49.70;;;;;;5057005;28;19912;-72
2022/04/05 03:05:07;;;;;;;12.75;8.00;;;19.60;49.70;;;;;;5057882;28;20067;-71
2022/04/05 03:07:35;;;;;;;11.93;7.93;;;19.70;49.80;;;;;;5057404;28;20047;-72
2022/04/05 03:10:06;;;;;;;13.32;7.32;;;19.60;49.60;;;;;;5056943;28;20147;-71
2022/04/05 03:12:35;;;;;;;11.02;7.30;;;19.60;49.50;;;;;;5057383;28;20030;-71
2022/04/05 03:15:02;;;;;;;9.55;6.38;;;19.60;49.30;;;;;;5057309;28;20048;-72
2022/04/05 03:17:29;;;;;;;11.70;7.05;;;19.70;49.50;;;;;;5057171;28;20048;-71
2022/04/05 03:19:56;;;;;;;9.35;6.63;;;19.70;49.50;;;;;;5057040;28;20069;-71
2022/04/05 03:22:22;;;;;;;10.15;7.50;;;19.60;49.50;;;;;;5057076;28;20067;-71
2022/04/05 03:24:50;;;;;;;14.18;8.07;;;19.50;49.50;;;;;;5056794;28;20037;-71
2022/04/05 03:27:17;;;;;;;12.00;6.85;;;19.60;49.50;;;;;;5057061;28;20069;-71
2022/04/05 03:29:43;;;;;;;13.85;7.10;;;19.60;49.60;;;;;;5057538;28;20068;-71
2022/04/05 03:32:11;;;;;;;11.20;7.47;;;19.50;49.50;;;;;;5057511;28;20045;-71
2022/04/05 03:34:40;;;;;;;11.15;7.63;;;19.60;49.60;;;;;;5073548;28;20105;-71
2022/04/05 03:37:07;;;;;;;11.52;7.93;;;19.60;49.20;;;;;;5056997;28;20041;-71
2022/04/05 03:39:33;;;;;;;10.70;7.10;;;19.60;49.20;;;;;;5056151;28;20514;-71
2022/04/05 03:42:00;;;;;;;8.57;6.03;;;19.70;49.10;;;;;;5057425;28;20048;-71
2022/04/05 03:44:26;;;;;;;13.75;7.60;;;19.70;48.90;;;;;;5056639;28;20068;-72
2022/04/05 03:46:56;;;;;;;12.35;7.90;;;19.80;48.80;;;;;;5056807;28;20048;-71
2022/04/05 03:49:23;;;;;;;11.20;7.57;;;19.80;48.80;;;;;;5056587;28;20136;-71
2022/04/05 03:51:53;;;;;;;12.07;7.88;;;19.80;48.90;;;;;;5056891;28;20041;-71
2022/04/05 03:54:20;;;;;;;14.43;8.68;;;19.90;48.80;;;;;;5023883;28;20033;-71
2022/04/05 03:56:47;;;;;;;13.05;7.90;;;19.90;48.80;;;;;;5055079;28;20053;-71
2022/04/05 03:59:13;;;;;;;13.15;7.30;;;19.80;48.90;;;;;;5056356;28;20048;-71
2022/04/05 04:01:40;;;;;;;10.48;6.93;;;20.00;49.10;;;;;;5056022;28;20049;-72
2022/04/05 04:04:06;;;;;;;11.52;6.75;;;19.90;49.20;;;;;;5056390;28;20048;-71
2022/04/05 04:06:33;;;;;;;10.13;6.35;;;19.90;49.30;;;;;;5056080;28;20045;-75
2022/04/05 04:09:00;;;;;;;8.70;6.30;;;19.90;50.20;;;;;;5055695;28;20068;-74
2022/04/05 04:11:27;;;;;;;10.98;6.95;;;20.10;50.90;;;;;;5055769;28;20037;-74
2022/04/05 04:13:53;;;;;;;12.00;7.05;;;20.40;50.50;;;;;;5055409;28;20073;-74
2022/04/05 04:16:24;;;;;;;9.57;7.88;;;20.80;51.30;;;;;;5055189;28;20101;-75
2022/04/05 04:18:50;;;;;;;12.70;6.85;;;21.10;49.30;;;;;;5055399;28;20041;-77
2022/04/05 04:21:17;;;;;;;14.85;8.30;;;21.20;45.60;;;;;;5067193;28;20040;-74
2022/04/05 04:23:43;;;;;;;13.30;8.38;;;21.10;43.50;;;;;;5058474;28;20040;-75
2022/04/05 04:26:10;;;;;;;11.93;8.60;;;21.10;42.40;;;;;;5075323;28;20045;-74
2022/04/05 04:28:37;;;;;;;12.27;8.68;;;20.90;42.10;;;;;;5075744;28;20033;-74
2022/04/05 04:31:03;;;;;;;12.75;8.70;;;20.80;42.20;;;;;;5075758;28;20041;-74
2022/04/05 04:33:29;;;;;;;13.00;9.25;;;20.70;43.10;;;;;;5075481;28;20051;-74
2022/04/05 04:35:55;;;;;;;13.70;8.32;;;20.70;44.00;;;;;;5075069;28;20076;-74
2022/04/05 04:38:22;;;;;;;14.48;8.63;;;20.50;44.60;;;;;;5074717;28;20047;-75
2022/04/05 04:40:52;;;;;;;14.07;8.95;;;20.50;45.00;;;;;;5075809;28;20041;-71
2022/04/05 04:43:19;;;;;;;13.52;7.88;;;20.50;45.50;;;;;;5075722;28;20773;-71
2022/04/05 04:45:46;;;;;;;11.25;8.60;;;20.40;45.70;;;;;;5075828;28;20036;-70
2022/04/05 04:48:13;;;;;;;12.40;7.60;;;20.30;46.00;;;;;;5075831;28;20036;-71
2022/04/05 04:50:39;;;;;;;12.77;8.13;;;20.40;46.50;;;;;;5075874;28;20040;-71
2022/04/05 04:53:05;;;;;;;12.48;7.55;;;20.30;47.70;;;;;;5074937;28;20049;-71
2022/04/05 04:55:32;;;;;;;10.35;6.97;;;20.40;48.00;;;;;;5075421;28;20500;-71
2022/04/05 04:57:59;;;;;;;14.68;8.00;;;20.50;48.00;;;;;;5075193;28;20044;-71
2022/04/05 05:00:25;;;;;;;14.45;8.70;;;20.60;48.00;;;;;;5075221;28;20041;-70
2022/04/05 05:02:51;;;;;;;10.90;7.28;;;20.40;49.10;;;;;;5072534;28;20048;-71
2022/04/05 05:05:19;;;;;;;9.85;5.63;;;20.50;45.30;;;;;;5071709;28;20041;-72
2022/04/05 05:07:50;;;;;;;6.63;4.75;;;20.50;40.30;;;;;;5074578;28;20036;-72
2022/04/05 05:10:21;;;;;;;11.90;7.22;;;20.60;43.20;;;;;;5074273;28;20116;-71
2022/04/05 05:12:47;;;;;;;8.48;6.30;;;20.90;42.80;;;;;;5075178;28;20036;-72
2022/04/05 05:15:21;;;;;;;9.38;6.03;;;20.90;40.60;;;;;;5075127;28;20048;-72
2022/04/05 05:17:48;;;;;;;9.50;5.18;;;21.10;42.40;;;;;;5072985;28;20041;-72
2022/04/05 05:20:15;;;;;;;11.30;6.88;;;21.20;39.80;;;;;;5074823;28;20052;-71
2022/04/05 05:22:42;;;;;;;9.93;6.00;;;21.20;39.30;;;;;;5074706;28;20036;-71
2022/04/05 05:25:10;;;;;;;13.30;8.40;;;21.40;36.50;;;;;;5075089;28;20037;-73
2022/04/05 05:27:38;;;;;;;14.80;8.25;;;21.50;45.80;;;;;;5074923;28;20064;-73
2022/04/05 05:30:06;;;;;;;17.48;9.52;;;21.60;51.50;;;;;;5078539;28;20059;-70
2022/04/05 05:32:32;;;;;;;13.90;8.30;;;21.60;51.20;;;;;;5078987;28;20049;-69
2022/04/05 05:34:58;;;;;;;12.13;7.47;;;21.40;51.90;;;;;;5078785;28;20138;-72
2022/04/05 05:37:24;;;;;;;18.05;9.75;;;21.40;51.40;;;;;;5078964;28;20065;-71
2022/04/05 05:39:50;;;;;;;10.88;6.90;;;21.20;52.10;;;;;;5078238;28;20061;-73
2022/04/05 05:42:16;;;;;;;8.98;5.82;;;21.30;52.80;;;;;;5079051;28;20071;-74
2022/04/05 05:44:43;;;;;;;8.27;5.90;;;21.30;53.40;;;;;;5077637;28;20028;-70
2022/04/05 05:47:09;;;;;;;8.27;6.13;;;21.20;53.20;;;;;;5078303;28;20033;-70
2022/04/05 05:49:35;;;;;;;12.95;7.00;;;21.10;53.50;;;;;;5078901;28;20044;-69
2022/04/05 05:52:01;;;;;;;9.93;6.82;;;21.10;53.50;;;;;;5078871;28;20100;-70
2022/04/05 05:54:27;;;;;;;15.02;7.28;;;21.00;53.60;;;;;;5078871;28;20041;-69
2022/04/05 05:56:53;;;;;;;11.75;6.85;;;21.00;57.90;;;;;;5077835;28;20059;-67
2022/04/05 05:59:19;;;;;;;13.77;6.60;;;20.90;55.30;;;;;;5079388;28;20035;-71
2022/04/05 06:01:59;;;;;;;12.38;6.82;;;20.90;55.10;;;;;;5077877;28;20041;-74
2022/04/05 06:04:27;;;;;;;9.70;6.18;;;21.00;55.40;;;;;;5078151;28;20075;-75
2022/04/05 06:06:53;;;;;;;11.48;6.38;;;21.00;55.60;;;;;;5078137;28;20178;-71
2022/04/05 06:09:19;;;;;;;10.90;6.25;;;20.90;56.00;;;;;;5078294;28;20028;-71
2022/04/05 06:11:45;;;;;;;9.30;5.78;;;20.90;56.30;;;;;;5077751;28;20047;-70
2022/04/05 06:14:11;;;;;;;14.80;6.53;;;21.00;56.80;;;;;;5077220;28;20037;-71
2022/04/05 06:16:38;;;;;;;6.03;4.28;;;21.10;56.60;;;;;;5078126;28;20041;-70
2022/04/05 06:19:04;;;;;;;7.97;6.18;;;21.10;56.70;;;;;;5077983;28;20067;-70
2022/04/05 06:21:30;;;;;;;11.30;5.63;;;21.40;55.90;;;;;;5077362;28;20033;-70
2022/04/05 06:23:56;;;;;;;8.25;4.40;;;21.50;56.30;;;;;;5077967;28;20037;-70
2022/04/05 06:26:23;;;;;;;9.40;4.68;;;21.50;56.00;;;;;;5077144;28;20056;-70
2022/04/05 06:28:49;;;;;;;8.90;5.43;;;21.60;55.80;;;;;;5078059;28;20037;-71
2022/04/05 06:31:15;;;;;;;9.45;5.13;;;21.70;55.40;;;;;;5077019;28;20041;-70
2022/04/05 06:33:41;;;;;;;9.63;5.13;;;21.50;55.60;;;;;;5077876;28;20105;-71
2022/04/05 06:36:07;;;;;;;6.57;3.65;;;21.70;55.80;;;;;;5078008;28;20067;-69
2022/04/05 06:38:33;;;;;;;8.93;5.55;;;21.70;55.60;;;;;;5077224;28;20049;-70
2022/04/05 06:41:00;;;;;;;7.80;4.72;;;21.70;54.40;;;;;;5077322;28;20033;-70
2022/04/05 06:43:27;;;;;;;11.40;5.85;;;21.80;54.70;;;;;;5077209;28;20048;-70
2022/04/05 06:45:54;;;;;;;9.90;6.05;;;21.70;55.10;;;;;;5077609;28;20108;-70
2022/04/05 06:48:20;;;;;;;10.13;6.10;;;21.80;54.30;;;;;;5077417;28;20059;-70
2022/04/05 06:50:47;;;;;;;7.47;5.53;;;21.80;54.40;;;;;;5077424;28;20037;-72
2022/04/05 06:53:13;;;;;;;6.00;4.22;;;21.70;54.10;;;;;;5077489;28;20041;-71
2022/04/05 06:55:39;;;;;;;8.13;5.03;;;21.70;54.50;;;;;;5077400;28;20041;-72
2022/04/05 06:58:05;;;;;;;5.25;3.45;;;21.70;54.10;;;;;;5077246;28;20101;-72
2022/04/05 07:00:35;;;;;;;5.43;3.33;;;21.90;54.10;;;;;;5077215;28;20036;-72
2022/04/05 07:03:01;;;;;;;5.03;3.63;;;22.00;53.80;;;;;;5077069;28;20036;-72
2022/04/05 07:05:28;;;;;;;7.00;3.40;;;21.80;53.80;;;;;;5080320;28;20040;-72
2022/04/05 07:07:54;;;;;;;3.83;3.05;;;21.90;53.60;;;;;;5096520;28;20058;-73
2022/04/05 07:10:21;;;;;;;4.00;2.72;;;21.90;53.50;;;;;;5096229;28;20067;-74
2022/04/05 07:12:47;;;;;;;4.78;3.28;;;22.00;53.50;;;;;;5097334;28;20115;-72
2022/04/05 07:15:14;;;;;;;4.28;3.30;;;22.00;53.30;;;;;;5097109;28;20098;-72
2022/04/05 07:17:41;;;;;;;7.78;3.67;;;22.00;53.10;;;;;;5097436;28;20041;-72
2022/04/05 07:20:09;;;;;;;5.07;3.45;;;22.00;53.00;;;;;;5097216;28;20040;-72
2022/04/05 07:22:49;;;;;;;5.47;3.20;;;22.00;53.00;;;;;;5096872;28;20036;-71
2022/04/05 07:25:18;;;;;;;5.38;3.50;;;22.00;53.50;;;;;;5096479;28;20048;-71
2022/04/05 07:27:44;;;;;;;7.80;4.18;;;22.00;53.10;;;;;;5096552;28;20781;-71
2022/04/05 07:30:11;;;;;;;6.30;3.20;;;22.00;52.70;;;;;;5096013;28;20043;-71
2022/04/05 07:32:38;;;;;;;8.50;4.03;;;22.00;52.40;;;;;;5096317;28;20036;-70
2022/04/05 07:35:05;;;;;;;5.07;2.95;;;22.10;55.70;;;;;;5096750;28;20074;-71
2022/04/05 07:37:31;;;;;;;13.48;2.75;;;22.00;55.60;;;;;;5096789;28;20037;-73
2022/04/05 07:40:00;;;;;;;6.93;4.80;;;22.00;54.00;;;;;;5096659;28;20048;-73
2022/04/05 07:42:26;;;;;;;4.35;3.95;;;22.00;54.30;;;;;;5097010;28;20040;-73
2022/04/05 07:44:56;;;;;;;5.15;2.70;;;22.10;52.80;;;;;;5096541;28;20066;-73
2022/04/05 07:47:22;;;;;;;4.72;2.97;;;22.00;53.80;;;;;;5095829;28;20059;-76
2022/04/05 07:49:50;;;;;;;8.63;3.97;;;22.00;54.00;;;;;;5096476;28;20083;-75
2022/04/05 07:52:17;;;;;;;6.25;3.00;;;21.90;54.20;;;;;;5095730;28;20072;-73
2022/04/05 07:54:43;;;;;;;10.50;3.55;;;22.00;54.80;;;;;;5096625;28;20044;-72
2022/04/05 07:57:10;;;;;;;5.47;3.30;;;22.00;54.60;;;;;;5096362;28;20064;-73
2022/04/05 07:59:36;;;;;;;3.53;2.65;;;22.10;54.10;;;;;;5096529;28;20040;-73
2022/04/05 08:02:03;;;;;;;5.00;3.10;;;22.10;51.60;;;;;;5096311;28;20052;-73
2022/04/05 08:04:29;;;;;;;2.00;1.58;;;22.00;53.10;;;;;;5095091;28;20043;-73
2022/04/05 08:06:55;;;;;;;4.47;2.00;;;22.10;53.40;;;;;;5095250;28;20131;-72
2022/04/05 08:09:22;;;;;;;13.27;6.53;;;22.20;52.60;;;;;;5096557;28;20040;-72
2022/04/05 08:11:48;;;;;;;3.47;2.53;;;22.10;54.00;;;;;;5095951;28;20044;-73
2022/04/05 08:14:15;;;;;;;6.80;2.83;;;22.20;52.10;;;;;;5096301;28;20036;-73
2022/04/05 08:16:42;;;;;;;7.78;3.50;;;22.20;48.50;;;;;;5094988;28;20043;-73
2022/04/05 08:19:09;;;;;;;0.85;0.80;;;22.30;45.80;;;;;;5081995;28;20041;-73
2022/04/05 08:21:36;;;;;;;1.23;1.15;;;22.20;43.70;;;;;;5076024;28;20041;-73
2022/04/05 08:24:02;;;;;;;2.10;1.65;;;22.20;41.60;;;;;;5075278;28;20049;-73
2022/04/05 08:26:28;;;;;;;1.02;1.02;;;22.10;39.90;;;;;;5075488;28;20045;-74
2022/04/05 08:28:55;;;;;;;5.10;3.15;;;22.20;39.80;;;;;;5075675;28;20099;-73
2022/04/05 08:31:21;;;;;;;2.92;2.70;;;22.20;38.20;;;;;;5075936;28;20033;-72
2022/04/05 08:33:47;;;;;;;4.45;0.70;;;22.20;35.40;;;;;;5075924;28;20033;-73
2022/04/05 08:36:14;;;;;;;1.02;0.93;;;22.10;33.70;;;;;;5076068;28;20044;-73
2022/04/05 08:38:40;;;;;;;6.13;4.03;;;22.10;32.80;;;;;;5076008;28;20045;-73
2022/04/05 08:41:07;;;;;;;4.75;3.78;;;22.10;32.60;;;;;;5075550;28;20044;-73
2022/04/05 08:43:34;;;;;;;7.50;3.50;;;22.20;33.80;;;;;;5075779;28;20040;-73
2022/04/05 08:46:03;;;;;;;0.60;0.60;;;22.00;36.40;;;;;;5108524;28;20067;-72
2022/04/05 08:48:30;;;;;;;0.80;0.80;;;22.00;36.80;;;;;;5075380;28;20043;-71
2022/04/05 08:50:58;;;;;;;1.13;1.05;;;22.00;37.80;;;;;;5075731;28;20045;-69
2022/04/05 08:53:24;;;;;;;3.38;2.95;;;22.00;39.40;;;;;;5075614;28;20053;-69
2022/04/05 08:55:52;;;;;;;2.83;1.85;;;22.10;35.90;;;;;;5075829;28;20121;-70
2022/04/05 08:58:18;;;;;;;1.08;0.75;;;22.20;31.60;;;;;;5075997;28;20044;-69
2022/04/05 09:00:45;;;;;;;5.25;2.40;;;22.30;30.90;;;;;;5074388;28;20037;-70
2022/04/05 09:03:11;;;;;;;6.75;1.40;;;22.20;30.40;;;;;;5078299;28;20064;-69
2022/04/05 09:05:40;;;;;;;7.38;3.17;;;22.30;31.00;;;;;;5079076;28;20033;-74
2022/04/05 09:08:19;;;;;;;1.73;1.42;;;22.40;31.00;;;;;;5079849;28;20044;-73
2022/04/05 09:10:54;;;;;;;6.70;3.00;;;22.30;32.40;;;;;;5079625;28;20071;-75
2022/04/05 09:13:25;;;;;;;3.83;3.33;;;22.30;33.30;;;;;;5079753;28;20066;-73
2022/04/05 09:15:54;;;;;;;3.70;2.90;;;22.20;31.60;;;;;;5079400;28;20091;-74
2022/04/05 09:18:40;;;;;;;0.73;0.68;;;22.30;29.50;;;;;;5079634;28;20045;-74
2022/04/05 09:21:09;;;;;;;6.53;2.78;;;22.40;37.30;;;;;;5079256;28;20041;-75
2022/04/05 09:23:38;;;;;;;8.10;3.20;;;22.30;38.40;;;;;;5079192;28;20068;-73
2022/04/05 09:26:12;;;;;;;4.20;3.50;;;22.40;33.10;;;;;;5079175;28;20040;-74
2022/04/05 09:28:41;;;;;;;6.13;3.58;;;22.40;37.10;;;;;;5079467;28;20051;-73
2022/04/05 09:31:14;;;;;;;2.83;1.88;;;22.40;36.60;;;;;;5079400;28;20105;-74
2022/04/05 09:34:12;;;;;;;2.83;1.75;;;22.40;38.10;;;;;;5079429;28;20048;-73
2022/04/05 09:36:51;;;;;;;4.05;3.05;;;22.40;38.80;;;;;;5079135;28;20045;-73
2022/04/05 09:39:17;;;;;;;3.47;2.63;;;22.30;39.10;;;;;;5079080;28;20057;-75
2022/04/05 09:41:45;;;;;;;3.63;2.40;;;22.30;40.40;;;;;;5079007;28;20063;-75
2022/04/05 09:44:11;;;;;;;20.67;6.55;;;22.60;46.10;;;;;;5079057;28;20060;-74
2022/04/05 09:46:40;;;;;;;2.92;2.55;;;23.00;47.60;;;;;;5078999;28;20052;-73
2022/04/05 09:49:14;;;;;;;2.15;1.98;;;23.10;39.80;;;;;;5077968;28;20036;-74
2022/04/05 09:51:45;;;;;;;4.47;2.83;;;22.90;39.90;;;;;;5079060;28;20096;-73
2022/04/05 09:54:18;;;;;;;4.90;2.80;;;22.90;34.90;;;;;;5079126;28;20060;-71
2022/04/05 09:56:45;;;;;;;4.10;2.40;;;22.80;35.70;;;;;;5077921;28;20033;-73
2022/04/05 09:59:18;;;;;;;4.25;2.55;;;22.70;37.80;;;;;;5078900;28;20037;-72
2022/04/05 10:01:46;;;;;;;4.40;2.42;;;22.80;40.50;;;;;;5078700;28;20041;-73
2022/04/05 10:04:17;;;;;;;2.45;2.25;;;22.80;42.50;;;;;;5078079;28;20101;-71
2022/04/05 10:06:49;;;;;;;3.60;2.60;;;23.00;40.20;;;;;;5078863;28;20045;-71
2022/04/05 10:09:17;;;;;;;3.22;2.47;;;23.10;40.50;;;;;;5078833;28;20037;-71
2022/04/05 10:11:44;;;;;;;2.80;2.28;;;23.40;42.00;;;;;;5078404;28;20041;-71
2022/04/05 10:14:13;;;;;;;2.75;2.40;;;23.60;41.80;;;;;;5077263;28;20068;-71
2022/04/05 10:16:40;;;;;;;3.30;2.33;;;23.70;42.30;;;;;;5078457;28;20108;-71
2022/04/05 10:19:11;;;;;;;4.72;2.88;;;23.80;41.70;;;;;;5078478;28;20101;-71
2022/04/05 10:21:43;;;;;;;2.40;2.20;;;23.60;41.80;;;;;;5078394;28;20357;-71
2022/04/05 10:24:11;;;;;;;6.95;2.90;;;23.60;42.10;;;;;;5078380;28;20041;-71
2022/04/05 10:26:40;;;;;;;2.85;2.28;;;23.60;42.60;;;;;;5078202;28;20051;-71
2022/04/05 10:29:09;;;;;;;2.83;2.28;;;23.50;43.00;;;;;;5078424;28;20033;-71
2022/04/05 10:31:43;;;;;;;3.00;2.78;;;23.40;43.20;;;;;;5078115;28;20036;-71
2022/04/05 10:34:23;;;;;;;5.43;2.35;;;23.50;43.50;;;;;;5078205;28;20136;-71
2022/04/05 10:37:09;;;;;;;5.72;2.55;;;23.40;43.30;;;;;;5077544;28;20044;-71
2022/04/05 10:39:37;;;;;;;5.13;2.60;;;23.30;43.60;;;;;;5078076;28;20059;-70
2022/04/05 10:42:16;;;;;;;2.78;2.40;;;23.30;44.20;;;;;;5077296;28;20044;-71
2022/04/05 10:45:12;;;;;;;2.88;2.25;;;23.30;44.30;;;;;;5078131;28;20060;-73
2022/04/05 10:48:20;;;;;;;3.08;1.98;;;23.20;44.40;;;;;;5077951;28;20033;-72
2022/04/05 10:51:07;;;;;;;2.63;2.13;;;23.20;44.60;;;;;;5077837;28;20033;-72
2022/04/05 10:54:17;;;;;;;2.70;1.77;;;23.10;44.60;;;;;;5077528;28;20041;-71
2022/04/05 10:56:29;;;;;;;2.42;1.67;;;23.10;44.90;;;;;;5077575;28;20040;-71
2022/04/05 10:58:55;;;;;;;4.20;2.25;;;23.20;45.00;;;;;;5077771;28;20045;-70
2022/04/05 11:01:23;;;;;;;4.05;2.35;;;23.10;45.00;;;;;;5077571;28;20055;-72
2022/04/05 11:04:12;;;;;;;3.85;2.78;;;23.00;44.30;;;;;;5077714;28;20101;-72
2022/04/05 11:07:01;;;;;;;2.63;1.80;;;23.00;45.00;;;;;;5077371;28;20041;-72
2022/04/05 11:09:28;;;;;;;2.92;1.98;;;23.10;45.20;;;;;;5077571;28;20496;-72
2022/04/05 11:12:00;;;;;;;3.35;2.08;;;23.00;44.70;;;;;;5077347;28;20063;-72
2022/04/05 11:15:04;;;;;;;2.47;1.98;;;23.10;45.20;;;;;;5077319;28;20043;-73
2022/04/05 11:17:32;;;;;;;2.47;1.90;;;23.10;45.60;;;;;;5074076;28;20049;-70
2022/04/05 11:20:00;;;;;;;5.63;2.35;;;23.10;45.70;;;;;;5077215;28;20064;-70
2022/04/05 11:22:32;;;;;;;3.17;1.90;;;23.00;45.40;;;;;;5077078;28;20155;-72
2022/04/05 11:25:10;;;;;;;1.60;1.50;;;23.00;45.30;;;;;;5076990;28;20041;-71
2022/04/05 11:27:45;;;;;;;2.58;2.25;;;23.00;45.30;;;;;;5076856;28;20037;-71
2022/04/05 11:30:26;;;;;;;3.88;2.28;;;23.00;45.50;;;;;;5077043;28;20045;-72
2022/04/05 11:33:15;;;;;;;1.80;1.67;;;22.90;45.80;;;;;;5076385;28;20046;-71
2022/04/05 11:35:47;;;;;;;1.52;1.42;;;23.10;47.50;;;;;;5076802;28;20025;-71
2022/04/05 11:38:19;;;;;;;8.25;1.50;;;23.00;46.90;;;;;;5076966;28;20127;-71
2022/04/05 11:40:47;;;;;;;2.08;1.88;;;22.90;46.60;;;;;;5076890;28;20044;-70
2022/04/05 11:43:27;;;;;;;1.55;1.20;;;22.80;45.80;;;;;;5074958;28;20049;-71
2022/04/05 11:45:56;;;;;;;3.13;2.53;;;23.00;44.40;;;;;;5075246;28;20094;-70
2022/04/05 11:48:26;;;;;;;0.52;0.38;;;22.90;41.00;;;;;;5075447;28;20041;-71
2022/04/05 11:50:53;;;;;;;4.82;2.30;;;22.80;42.00;;;;;;5075603;28;20029;-70
2022/04/05 11:53:29;;;;;;;1.92;1.60;;;22.90;42.40;;;;;;5075543;28;20044;-71
2022/04/05 11:56:11;;;;;;;0.73;0.73;;;22.80;42.40;;;;;;5075888;28;20049;-71
2022/04/05 11:58:46;;;;;;;1.73;1.33;;;22.70;43.20;;;;;;5074945;28;20041;-70
2022/04/05 12:01:14;;;;;;;4.57;2.40;;;22.70;42.60;;;;;;5076396;28;20048;-70
2022/04/05 12:03:48;;;;;;;2.72;1.98;;;22.70;41.80;;;;;;5076242;28;20774;-70
2022/04/05 12:06:20;;;;;;;3.03;0.68;;;22.60;42.80;;;;;;5075638;28;20052;-69
2022/04/05 12:08:47;;;;;;;0.68;0.68;;;22.80;42.90;;;;;;5076168;28;20525;-70
2022/04/05 12:11:17;;;;;;;1.95;0.68;;;22.70;41.50;;;;;;5057992;28;20047;-70
2022/04/05 12:13:52;;;;;;;3.30;1.50;;;22.70;42.60;;;;;;5076447;28;20037;-69
2022/04/05 12:16:20;;;;;;;4.63;2.45;;;22.70;42.20;;;;;;5076381;28;20053;-70
2022/04/05 12:18:46;;;;;;;2.70;1.65;;;22.60;40.40;;;;;;5075476;28;20087;-69
2022/04/05 12:21:12;;;;;;;2.80;1.70;;;22.60;41.30;;;;;;5076144;28;20064;-70
2022/04/05 12:23:41;;;;;;;2.40;1.90;;;22.60;41.20;;;;;;5076003;28;20055;-70
2022/04/05 12:26:14;;;;;;;3.28;2.50;;;22.70;41.80;;;;;;5076091;28;20100;-70
2022/04/05 12:28:46;;;;;;;1.92;1.75;;;22.60;41.90;;;;;;5076249;28;20037;-70
2022/04/05 12:31:24;;;;;;;3.67;1.70;;;22.70;42.30;;;;;;5075838;28;20063;-70
2022/04/05 12:34:11;;;;;;;6.00;1.80;;;22.70;42.50;;;;;;5075814;28;20037;-70
2022/04/05 12:36:39;;;;;;;4.88;2.20;;;22.80;42.90;;;;;;5075655;28;20092;-70
2022/04/05 12:39:17;;;;;;;3.28;1.80;;;22.70;42.80;;;;;;5075734;28;20057;-70
2022/04/05 12:41:46;;;;;;;3.00;2.33;;;22.60;42.90;;;;;;5075993;28;20048;-70
2022/04/05 12:44:18;;;;;;;2.05;1.77;;;22.70;43.40;;;;;;5075570;28;20063;-70
2022/04/05 12:46:54;;;;;;;3.00;1.95;;;22.50;43.40;;;;;;5074883;28;20045;-70
2022/04/05 12:49:40;;;;;;;2.72;2.03;;;22.60;43.60;;;;;;5066141;28;20049;-70
2022/04/05 12:52:25;;;;;;;3.40;1.75;;;22.60;43.50;;;;;;5075456;28;20056;-70